Sunday, May 27, 2018, 6:01 AM EDT
Back to Local

KGTB, Fort Drum / Wheeler-sack U. S. Army Airfield

Location: Fort Drum, NY, United States Lat: 44.05
Local Time: 6:01 AM EDT (10:01 GMT) Lon: -75.733
Time Zone: US/Eastern Elev: 679 ft

Show me the last for .
Show Coded

Time T Td Feel RH Dir Speed Gust Alt SLP Vis Weather Sky Remarks
2018-05-27 04:56 66 61 - 83 150° 10 - 29.90 29.89 10 SCT170 None
2018-05-27 03:56 66 62 - 87 140° 10 - 29.89 29.88 10 FEW160 None
2018-05-27 02:56 64 63 - 96 - Calm - 29.89 29.88 10 FEW160 SCT190 None
2018-05-27 01:56 65 63 - 93 100° 5 - 29.89 29.88 10 FEW160 SCT180 BKN210 6-hr Min Temp (2am): 64.9°F
6-hr Max Temp (2am): 72.3°F
2018-05-27 00:56 66 64 - 92 100° 7 - 29.90 29.89 10 CLR 24-hr Min Temp (1am): 65.3°F
24-hr Max Temp (1am): 78.8°F
2018-05-26 23:56 66 63 - 92 60° 6 - 29.90 29.89 10 CLR None
2018-05-26 22:56 66 63 - 91 30° 6 - 29.91 29.90 10 CLR None
2018-05-26 21:56 67 63 - 87 30° 5 - 29.90 29.89 10 BKN190 None
2018-05-26 20:56 68 62 - 82 30° 3 - 29.88 29.87 10 FEW220 None
2018-05-26 19:56 72 62 76 69 60° 6 - 29.86 29.85 10 FEW230 6-hr Min Temp (8pm): 72.3°F
6-hr Max Temp (8pm): 78.8°F
2018-05-26 18:56 74 62 77 68 30° 10 - 29.85 29.84 10 CLR None
2018-05-26 17:56 77 63 79 62 40° 12 - 29.83 29.82 10 CLR None
2018-05-26 16:56 77 62 79 58 20° 7 - 29.82 29.81 10 CLR None
2018-05-26 15:56 78 61 80 56 20° 8 - 29.82 29.81 10 CLR None
2018-05-26 14:56 78 61 80 55 - Calm - 29.81 29.80 10 FEW040 None
2018-05-26 13:56 78 60 79 53 - Calm - 29.81 29.80 10 FEW170 FEW200 6-hr Min Temp (2pm): 68.7°F
6-hr Max Temp (2pm): 78.3°F
2018-05-26 12:56 77 59 79 53 300° 6 - 29.81 29.80 10 FEW130 FEW190 None
2018-05-26 11:56 77 58 79 51 260° 6 - 29.79 29.78 10 CLR None
2018-05-26 10:56 76 56 78 50 250° 6 - 29.79 29.78 10 CLR None
2018-05-26 09:56 74 54 77 50 220° 13 - 29.77 29.76 10 CLR None
2018-05-26 08:56 71 52 76 51 240° 14 18 29.77 29.76 10 CLR None
2018-05-26 07:56 69 51 - 52 250° 8 - 29.77 29.76 10 CLR 6-hr Min Temp (8am): 67.3°F
6-hr Max Temp (8am): 70.0°F
2018-05-26 06:56 67 49 - 52 270° 9 - 29.76 29.75 10 FEW065 None

Support USWX by starting your Amazon purchase here.